Time;durP1;ratioP1;P1;durP2;ratioP2;P2;SDS_P1;SDS_P2;PMS_P1;PMS_P2;Temp;Humidity;BMP_temperature;BMP_pressure;BME280_temperature;BME280_humidity;BME280_pressure;Samples;Min_cycle;Max_cycle;Signal;HPM_P1;HPM_P2
2021/05/23 00:00:44;;;;;;;17.50;9.90;;;;;;;13.64;62.94;101010.78;5036229;28;20025;-92
2021/05/23 00:03:14;;;;;;;16.48;10.65;;;;;;;13.59;63.16;101011.78;5035531;28;20031;-92
2021/05/23 00:05:42;;;;;;;15.98;10.00;;;;;;;13.55;63.04;101017.25;5053291;28;20090;-94
2021/05/23 00:08:12;;;;;;;15.30;9.80;;;;;;;13.55;63.31;101015.44;5053294;28;20031;-91
2021/05/23 00:10:50;;;;;;;19.67;11.07;;;;;;;13.54;63.44;101005.72;5053024;28;20021;-93
2021/05/23 00:13:19;;;;;;;15.55;10.55;;;;;;;13.52;63.04;101007.56;5053273;28;20055;-94
2021/05/23 00:18:48;;;;;;;17.52;10.55;;;;;;;13.51;63.35;101010.28;5050050;28;20410;-93
2021/05/23 00:21:18;;;;;;;24.75;11.82;;;;;;;13.51;63.76;101008.47;5048663;28;20037;-92
2021/05/23 00:23:46;;;;;;;23.05;12.35;;;;;;;13.48;63.71;101013.88;5050462;28;20033;-93
2021/05/23 00:26:13;;;;;;;20.92;11.57;;;;;;;13.48;63.64;101008.56;5049881;28;20477;-93
2021/05/23 00:28:40;;;;;;;19.17;10.27;;;;;;;13.48;63.49;101010.34;5050171;28;20044;-90
2021/05/23 00:31:07;;;;;;;20.67;11.60;;;;;;;13.48;64.18;101013.88;5050018;28;20051;-93
2021/05/23 00:33:35;;;;;;;22.10;11.43;;;;;;;13.50;63.51;101009.38;5049733;28;20021;-93
2021/05/23 00:36:03;;;;;;;18.60;11.05;;;;;;;13.49;63.44;101010.28;5050139;28;20021;-94
2021/05/23 00:38:31;;;;;;;19.88;11.25;;;;;;;13.51;63.70;101013.78;5050472;28;20033;-91
2021/05/23 00:41:04;;;;;;;17.33;10.55;;;;;;;13.52;63.93;101007.56;5049842;28;20064;-92
2021/05/23 00:43:30;;;;;;;15.77;10.80;;;;;;;13.53;63.32;101009.31;5049664;28;20119;-91
2021/05/23 00:45:57;;;;;;;19.50;11.98;;;;;;;13.53;63.45;101011.97;5049679;28;20030;-92
2021/05/23 00:48:25;;;;;;;17.20;10.20;;;;;;;13.54;63.75;101011.03;5049460;28;20033;-93
2021/05/23 00:50:52;;;;;;;20.98;10.93;;;;;;;13.55;63.29;101020.75;5049885;28;20029;-92
2021/05/23 00:53:19;;;;;;;14.90;10.43;;;;;;;13.55;63.80;101018.09;5049888;28;20025;-93
2021/05/23 00:55:47;;;;;;;19.00;11.32;;;;;;;13.55;63.71;101027.88;5049736;28;20037;-92
2021/05/23 00:58:14;;;;;;;15.50;10.25;;;;;;;13.54;63.99;101021.69;5049389;28;20116;-92
2021/05/23 01:06:33;;;;;;;24.47;15.53;;;;;;;13.18;66.04;101019.13;4625124;27;15043584;-93
2021/05/23 01:09:01;;;;;;;21.65;12.77;;;;;;;13.51;64.97;101019.13;5145690;27;20035;-93
2021/05/23 01:14:47;;;;;;;19.65;11.15;;;;;;;13.68;63.99;101028.38;5069973;28;20405;-93
2021/05/23 01:17:24;;;;;;;21.38;11.90;;;;;;;13.65;63.66;101026.69;5070170;28;20072;-93
2021/05/23 01:20:03;;;;;;;16.83;12.13;;;;;;;13.63;64.11;101028.50;5070147;28;20025;-93
2021/05/23 01:22:40;;;;;;;22.58;12.60;;;;;;;13.64;63.91;101026.75;5070203;28;20033;-94
2021/05/23 01:27:59;;;;;;;21.10;11.25;;;;;;;13.54;64.23;101026.13;5089904;28;20403;-92
2021/05/23 01:30:31;;;;;;;19.92;12.15;;;;;;;13.53;64.20;101019.06;5090683;28;20024;-90
2021/05/23 01:33:01;;;;;;;19.77;12.35;;;;;;;13.54;64.06;101020.81;5089973;28;20464;-93
2021/05/23 01:35:37;;;;;;;17.45;11.10;;;;;;;13.58;64.33;101017.13;5076077;28;20024;-92
2021/05/23 01:38:10;;;;;;;19.25;12.32;;;;;;;13.55;64.63;101017.25;5088945;28;20045;-92
2021/05/23 01:40:37;;;;;;;19.48;12.77;;;;;;;13.51;64.32;101024.44;5090276;28;20032;-94
2021/05/23 01:43:06;;;;;;;24.00;12.85;;;;;;;13.52;64.41;101018.22;5090412;28;20032;-93
2021/05/23 01:45:33;;;;;;;24.88;12.98;;;;;;;13.52;64.12;101025.31;5090288;28;20021;-93
2021/05/23 01:48:02;;;;;;;22.88;12.95;;;;;;;13.51;64.78;101020.94;5090486;28;20055;-94
2021/05/23 01:50:29;;;;;;;20.15;13.25;;;;;;;13.48;64.13;101016.53;5090268;28;20025;-93
2021/05/23 01:53:00;;;;;;;25.48;12.80;;;;;;;13.49;64.21;101012.97;5090281;28;20078;-93
2021/05/23 01:55:29;;;;;;;27.30;13.10;;;;;;;13.49;64.23;101004.97;5090089;28;20099;-91
2021/05/23 01:57:56;;;;;;;25.52;14.40;;;;;;;13.46;64.64;101002.41;5090127;28;20028;-93
2021/05/23 02:00:36;;;;;;;26.63;14.40;;;;;;;13.49;64.57;101012.09;5088699;28;20043;-93
2021/05/23 02:03:06;;;;;;;22.17;13.70;;;;;;;13.46;64.41;101007.75;5089848;28;20028;-92
2021/05/23 02:05:43;;;;;;;21.48;13.05;;;;;;;13.52;64.35;101018.22;5089255;28;20043;-93
2021/05/23 02:08:10;;;;;;;24.30;15.63;;;;;;;13.42;64.34;101016.72;5090666;28;20032;-92
2021/05/23 02:10:53;;;;;;;25.02;16.38;;;;;;;13.43;64.70;101013.13;5089879;28;20035;-92
2021/05/23 02:13:28;;;;;;;26.92;16.67;;;;;;;13.41;64.97;101007.88;5088318;28;20372;-93
2021/05/23 02:15:55;;;;;;;27.27;15.68;;;;;;;13.42;64.68;101011.38;5089403;28;20028;-81
2021/05/23 02:18:45;;;;;;;25.05;16.00;;;;;;;13.40;64.66;101010.59;5089509;28;20021;-91
2021/05/23 02:21:14;;;;;;;30.20;17.10;;;;;;;13.42;64.53;101011.38;5088270;28;20033;-92
2021/05/23 02:24:01;;;;;;;30.08;17.25;;;;;;;13.52;64.53;101019.97;5089555;28;20039;-90
2021/05/23 02:26:27;;;;;;;27.58;18.02;;;;;;;13.39;64.18;101016.81;5089552;28;20449;-92
2021/05/23 02:28:54;;;;;;;33.65;17.45;;;;;;;13.40;64.63;101013.25;5089485;28;20500;-92
2021/05/23 02:31:24;;;;;;;32.25;17.23;;;;;;;13.45;64.65;101010.47;5071147;28;20044;-91
2021/05/23 02:33:51;;;;;;;34.92;19.63;;;;;;;13.41;64.36;101009.66;5089306;28;20016;-92
2021/05/23 02:36:17;;;;;;;32.38;19.45;;;;;;;13.43;64.74;101007.81;5089073;28;20091;-92
2021/05/23 02:39:18;;;;;;;33.08;19.67;;;;;;;13.57;64.23;101010.06;5075990;28;20476;-92
2021/05/23 02:41:45;;;;;;;32.90;18.40;;;;;;;13.48;64.91;101008.56;5075589;28;20028;-92
2021/05/23 02:44:12;;;;;;;28.88;18.08;;;;;;;13.51;64.95;101016.47;5074377;28;20032;-90
2021/05/23 02:46:39;;;;;;;32.22;17.23;;;;;;;13.52;64.79;101015.53;5075126;28;20039;-92
2021/05/23 02:49:05;;;;;;;28.73;18.08;;;;;;;13.54;64.90;101015.50;5075735;28;20033;-92
2021/05/23 02:51:47;;;;;;;29.30;18.85;;;;;;;13.67;64.33;101016.00;5074218;28;20028;-92
2021/05/23 02:54:21;;;;;;;29.65;17.67;;;;;;;13.57;65.12;101005.63;5058058;28;20040;-92
2021/05/23 02:56:49;;;;;;;25.35;16.30;;;;;;;13.56;64.55;101014.53;5076483;28;20020;-92
2021/05/23 02:59:15;;;;;;;31.00;19.17;;;;;;;13.58;64.50;101018.03;5061966;28;20024;-92
2021/05/23 03:01:44;;;;;;;31.05;18.50;;;;;;;13.60;64.68;101015.31;5055447;28;20082;-92
2021/05/23 03:04:11;;;;;;;31.00;18.38;;;;;;;13.58;64.50;101018.03;5055809;28;20033;-92
2021/05/23 03:06:37;;;;;;;26.65;17.70;;;;;;;13.59;64.72;101022.44;5056970;28;20526;-92
2021/05/23 03:09:05;;;;;;;35.40;19.50;;;;;;;13.60;65.00;101023.31;5056790;28;20037;-92
2021/05/23 03:11:32;;;;;;;31.80;20.38;;;;;;;13.59;64.56;101022.44;5055821;28;20029;-91
2021/05/23 03:14:21;;;;;;;33.38;20.77;;;;;;;13.72;64.47;101022.03;5055917;28;20037;-92
2021/05/23 03:16:51;;;;;;;33.13;20.73;;;;;;;13.54;64.60;101020.81;5054428;28;20060;-92
2021/05/23 03:19:17;;;;;;;31.67;21.20;;;;;;;13.44;65.55;101036.19;5055644;28;20021;-92
2021/05/23 03:21:44;;;;;;;33.72;21.83;;;;;;;13.47;65.42;101052.09;5055657;28;20465;-91
2021/05/23 03:24:11;;;;;;;37.00;20.23;;;;;;;13.43;64.92;101045.06;5055237;28;20108;-90
2021/05/23 03:26:38;;;;;;;33.97;21.60;;;;;;;13.35;65.87;101052.41;5054450;28;20114;-93
2021/05/23 03:29:07;;;;;;;28.98;19.48;;;;;;;13.24;65.83;101056.22;5053138;28;20033;-90
2021/05/23 03:31:33;;;;;;;15.63;10.63;;;;;;;12.97;66.00;101062.28;5054421;28;20515;-91
2021/05/23 03:34:00;;;;;;;12.77;7.55;;;;;;;13.01;65.93;101054.19;5036553;28;20433;-91
2021/05/23 03:36:27;;;;;;;9.38;6.15;;;;;;;13.05;64.68;101047.88;5054751;28;20025;-91
2021/05/23 03:38:54;;;;;;;6.57;4.40;;;;;;;13.06;64.62;101056.72;5054023;28;20107;-92
2021/05/23 03:41:20;;;;;;;7.47;4.70;;;;;;;12.94;64.65;101058.78;5054018;28;20025;-91
2021/05/23 03:43:47;;;;;;;6.38;4.05;;;;;;;12.74;65.28;101055.78;5054263;28;20025;-92
2021/05/23 03:46:13;;;;;;;4.00;3.60;;;;;;;12.85;64.91;101067.00;5054125;28;20041;-92
2021/05/23 03:48:40;;;;;;;5.55;3.53;;;;;;;12.88;64.69;101066.91;5054003;28;20040;-92
2021/05/23 03:51:07;;;;;;;4.18;3.58;;;;;;;12.90;64.88;101069.56;5052252;28;20384;-92
2021/05/23 03:53:33;;;;;;;5.80;4.20;;;;;;;12.83;64.88;101060.84;5053933;28;20115;-92
2021/05/23 03:55:59;;;;;;;4.50;4.10;;;;;;;12.87;64.75;101049.25;5053848;28;20029;-92
2021/05/23 03:58:46;;;;;;;6.65;4.97;;;;;;;13.05;64.76;101044.34;5052147;28;20025;-92
2021/05/23 04:01:15;;;;;;;6.82;5.45;;;;;;;12.98;64.79;101053.41;5053927;28;20419;-92
2021/05/23 04:03:43;;;;;;;8.15;5.90;;;;;;;13.01;65.17;101045.31;5052334;28;20116;-91
2021/05/23 04:06:09;;;;;;;6.85;5.97;;;;;;;13.01;64.93;101040.00;5052255;28;20037;-92
2021/05/23 04:08:37;;;;;;;7.38;6.10;;;;;;;13.11;64.84;101036.19;5035711;28;20068;-92
2021/05/23 04:11:09;;;;;;;7.07;5.82;;;;;;;13.10;64.67;101045.09;5053707;28;20365;-92
2021/05/23 04:13:38;;;;;;;9.45;7.05;;;;;;;13.16;64.87;101047.59;5052256;28;20369;-91
2021/05/23 04:16:22;;;;;;;8.75;6.63;;;;;;;13.22;64.76;101047.41;5051961;28;20033;-91
2021/05/23 04:18:49;;;;;;;9.88;6.95;;;;;;;13.25;64.74;101039.31;5053311;28;20131;-92
2021/05/23 04:21:16;;;;;;;11.80;7.93;;;;;;;13.25;64.90;101041.13;5035744;28;20032;-90
2021/05/23 04:23:42;;;;;;;11.68;7.80;;;;;;;13.29;64.94;101039.25;5052319;28;20047;-90
2021/05/23 04:26:08;;;;;;;10.00;7.35;;;;;;;13.30;64.81;101043.66;5053255;28;20586;-92
2021/05/23 04:28:37;;;;;;;10.43;7.38;;;;;;;13.36;65.28;101047.03;5053403;28;20036;-91
2021/05/23 04:31:09;;;;;;;10.85;7.72;;;;;;;13.45;64.56;101047.72;5053231;28;20086;-92
2021/05/23 04:33:36;;;;;;;8.45;6.88;;;;;;;13.40;64.93;101045.19;5053219;28;20028;-92
2021/05/23 04:36:02;;;;;;;13.00;8.82;;;;;;;13.43;64.94;101045.97;5051813;28;20140;-92
2021/05/23 04:38:32;;;;;;;10.68;7.55;;;;;;;13.50;65.14;101044.00;5053280;28;20427;-91
2021/05/23 04:40:58;;;;;;;14.32;8.05;;;;;;;13.50;64.99;101046.66;5053069;28;20051;-90
2021/05/23 04:43:24;;;;;;;11.02;8.40;;;;;;;13.54;65.10;101058.94;5053210;28;20021;-91
2021/05/23 04:46:01;;;;;;;12.02;8.68;;;;;;;13.54;65.12;101048.31;5051351;28;20500;-92
2021/05/23 04:48:27;;;;;;;16.90;9.32;;;;;;;13.58;65.22;101049.97;5053155;28;20032;-92
2021/05/23 04:50:54;;;;;;;19.52;11.50;;;;;;;13.59;64.86;101051.72;5052876;28;20069;-91
2021/05/23 04:53:26;;;;;;;21.65;15.20;;;;;;;13.63;65.16;101054.28;5051827;28;20037;-92
2021/05/23 04:55:54;;;;;;;24.55;17.73;;;;;;;13.59;65.71;101056.16;5052990;28;20094;-91
2021/05/23 04:58:20;;;;;;;38.55;20.80;;;;;;;13.55;65.99;101060.69;5051216;28;20380;-92
2021/05/23 05:01:06;;;;;;;37.15;22.15;;;;;;;13.38;67.19;101062.97;5052521;28;20509;-92
2021/05/23 05:03:33;;;;;;;28.92;19.42;;;;;;;13.53;66.71;101074.97;5052729;28;20037;-91
2021/05/23 05:05:59;;;;;;;41.53;21.17;;;;;;;13.42;66.87;101069.94;5052276;28;20090;-92
2021/05/23 05:08:26;;;;;;;38.97;22.08;;;;;;;13.59;66.17;101073.03;5051807;28;20036;-90
2021/05/23 05:10:52;;;;;;;45.42;22.70;;;;;;;13.46;66.73;101076.94;5052737;28;20025;-92
2021/05/23 05:13:19;;;;;;;32.75;18.25;;;;;;;13.32;67.66;101079.97;5051410;28;20092;-92
2021/05/23 05:15:45;;;;;;;31.55;17.23;;;;;;;13.42;67.25;101073.50;5052667;28;20503;-92
2021/05/23 05:18:12;;;;;;;31.33;16.67;;;;;;;13.57;66.79;101069.53;5051512;28;20025;-91
2021/05/23 05:20:40;;;;;;;30.55;17.15;;;;;;;13.45;66.79;101072.53;5051165;28;20104;-91
2021/05/23 05:23:07;;;;;;;30.23;15.18;;;;;;;13.46;67.37;101071.63;5051471;28;20040;-91
2021/05/23 05:25:34;;;;;;;31.77;15.13;;;;;;;13.62;66.83;101071.16;5052107;28;20025;-91
2021/05/23 05:28:01;;;;;;;28.15;14.98;;;;;;;13.41;67.26;101090.38;5051196;28;20029;-91
2021/05/23 05:30:28;;;;;;;28.92;13.23;;;;;;;13.68;66.62;101086.97;5052214;28;20029;-91
2021/05/23 05:32:54;;;;;;;26.40;13.65;;;;;;;13.67;66.46;101091.44;5052578;28;20025;-90
2021/05/23 05:35:24;;;;;;;29.63;12.93;;;;;;;13.68;66.29;101093.19;5052510;28;20108;-90
2021/05/23 05:37:51;;;;;;;27.00;11.55;;;;;;;13.56;66.32;101094.41;5052201;28;20392;-90
2021/05/23 05:40:19;;;;;;;21.35;10.68;;;;;;;13.58;66.30;101097.91;5052794;28;20207;-90
2021/05/23 05:42:48;;;;;;;32.17;10.38;;;;;;;13.35;66.91;101102.97;5050934;28;20056;-90
2021/05/23 05:45:15;;;;;;;22.45;10.15;;;;;;;13.40;66.54;101111.72;5052486;28;20025;-91
2021/05/23 05:47:41;;;;;;;20.45;10.68;;;;;;;13.48;66.53;101120.34;5052039;28;20115;-90
2021/05/23 05:50:10;;;;;;;16.73;9.77;;;;;;;13.57;66.39;101114.78;5052295;28;20437;-90
2021/05/23 05:52:36;;;;;;;35.60;9.93;;;;;;;13.58;66.29;101121.84;5052156;28;20376;-91
2021/05/23 05:55:04;;;;;;;24.95;9.70;;;;;;;13.58;65.98;101135.16;5052357;28;20025;-90
2021/05/23 05:57:31;;;;;;;34.75;9.00;;;;;;;13.31;66.74;101127.88;5052541;28;20109;-90
2021/05/23 05:59:57;;;;;;;23.48;8.20;;;;;;;13.52;65.97;101129.13;5051275;28;20036;-91
2021/05/23 06:02:23;;;;;;;26.23;8.32;;;;;;;13.51;66.12;101125.59;5052295;28;20123;-91
2021/05/23 06:04:50;;;;;;;23.80;8.38;;;;;;;13.63;65.87;101128.84;5051882;28;20487;-91
2021/05/23 06:07:17;;;;;;;21.88;7.88;;;;;;;13.75;65.64;101123.16;5052415;28;20033;-91
2021/05/23 06:09:48;;;;;;;22.77;7.13;;;;;;;13.97;64.74;101119.84;5050978;28;20385;-91
2021/05/23 06:12:17;;;;;;;20.92;7.30;;;;;;;13.87;65.46;101119.28;5050737;28;20032;-90
2021/05/23 06:14:44;;;;;;;21.33;7.82;;;;;;;13.96;65.37;101128.78;5055999;28;20025;-90
2021/05/23 06:17:11;;;;;;;22.52;6.90;;;;;;;14.07;65.21;101132.00;5054324;28;20059;-91
2021/05/23 06:19:37;;;;;;;13.98;6.45;;;;;;;14.10;64.80;101131.91;5037946;28;20025;-91
2021/05/23 06:22:03;;;;;;;21.95;6.60;;;;;;;14.23;64.32;101135.94;5055911;28;20055;-90
2021/05/23 06:24:30;;;;;;;13.80;5.28;;;;;;;14.42;63.92;101137.16;5055912;28;20059;-90
2021/05/23 06:26:57;;;;;;;13.90;5.90;;;;;;;14.38;63.86;101141.69;5055961;28;20483;-90
2021/05/23 06:29:23;;;;;;;20.80;6.18;;;;;;;14.30;63.98;101141.09;5055715;28;20025;-91
2021/05/23 06:32:06;;;;;;;18.33;5.65;;;;;;;14.34;62.81;101143.63;5054600;28;20045;-91
2021/05/23 06:34:34;;;;;;;26.27;5.43;;;;;;;14.33;62.44;101154.31;5055403;28;20452;-89
2021/05/23 06:37:01;;;;;;;12.38;5.15;;;;;;;14.14;63.26;101154.84;5055888;28;20029;-90
2021/05/23 06:39:28;;;;;;;14.18;4.28;;;;;;;14.07;62.23;101154.19;5037468;28;20538;-89
2021/05/23 06:41:55;;;;;;;15.15;4.78;;;;;;;14.09;62.70;101156.78;5055480;28;20064;-91
2021/05/23 06:44:22;;;;;;;16.67;5.05;;;;;;;14.21;61.77;101156.44;5055106;28;20120;-90
2021/05/23 06:46:49;;;;;;;17.75;5.13;;;;;;;14.23;61.95;101159.03;5055007;28;20090;-91
2021/05/23 06:49:16;;;;;;;18.48;4.85;;;;;;;14.13;61.79;101173.56;5055496;28;20021;-90
2021/05/23 06:51:42;;;;;;;15.75;4.57;;;;;;;14.17;61.54;101170.78;5055156;28;20033;-91
2021/05/23 06:54:28;;;;;;;14.40;4.57;;;;;;;14.20;61.58;101176.00;5055422;28;20025;-90
2021/05/23 06:56:55;;;;;;;16.88;3.83;;;;;;;13.85;62.09;101175.22;5054747;28;20029;-87
2021/05/23 06:59:23;;;;;;;11.10;3.90;;;;;;;13.81;61.15;101180.72;5054858;28;20353;-90
2021/05/23 07:01:49;;;;;;;15.35;3.88;;;;;;;14.00;61.00;101178.38;5055065;28;20025;-90
2021/05/23 07:04:19;;;;;;;16.38;4.55;;;;;;;14.10;60.79;101177.19;5055184;28;20029;-90
2021/05/23 07:06:46;;;;;;;9.88;4.30;;;;;;;14.10;61.30;101176.34;5054410;28;20033;-91
2021/05/23 07:09:19;;;;;;;11.15;3.47;;;;;;;14.08;61.31;101176.34;5054828;28;20473;-91
2021/05/23 07:11:47;;;;;;;20.60;4.32;;;;;;;13.85;61.66;101190.34;5054368;28;20480;-90
2021/05/23 07:14:14;;;;;;;13.30;4.82;;;;;;;14.27;60.83;101186.47;5054793;28;20108;-90
2021/05/23 07:16:40;;;;;;;11.93;4.15;;;;;;;13.96;61.29;101192.72;5054718;28;20037;-92
2021/05/23 07:19:07;;;;;;;12.75;4.00;;;;;;;13.91;61.84;101192.84;5053624;28;20136;-91
2021/05/23 07:21:34;;;;;;;15.73;4.88;;;;;;;14.08;60.69;101190.56;5054684;28;20495;-90
2021/05/23 07:24:01;;;;;;;15.80;3.85;;;;;;;14.55;60.51;101189.19;5054353;28;20108;-91
2021/05/23 07:26:27;;;;;;;13.77;3.90;;;;;;;14.15;61.71;101204.56;5053595;28;20119;-85
2021/05/23 07:28:53;;;;;;;11.23;3.88;;;;;;;14.39;60.75;101200.31;5054331;28;20033;-87
2021/05/23 07:31:20;;;;;;;15.98;4.55;;;;;;;14.18;61.26;101200.94;5059945;28;20410;-86
2021/05/23 07:33:46;;;;;;;11.30;4.70;;;;;;;14.31;60.97;101194.34;5056628;28;20387;-84
2021/05/23 07:36:13;;;;;;;12.73;3.78;;;;;;;14.68;60.10;101197.72;5054250;28;20075;-94
2021/05/23 07:38:41;;;;;;;10.98;3.40;;;;;;;14.05;60.35;101200.44;5054022;28;20056;-92
2021/05/23 07:41:11;;;;;;;10.15;3.30;;;;;;;14.50;59.99;101205.31;5054263;28;20416;-93
2021/05/23 07:43:41;;;;;;;9.10;3.63;;;;;;;14.95;59.47;101200.41;5059375;28;20430;-96
2021/05/23 07:46:09;;;;;;;7.88;3.40;;;;;;;14.95;59.62;101211.09;5053460;28;20052;-80
2021/05/23 07:48:35;;;;;;;8.35;3.05;;;;;;;14.96;59.24;101208.34;5054907;28;20462;-96
2021/05/23 07:51:01;;;;;;;10.45;3.13;;;;;;;14.60;59.12;101215.72;5055121;28;20032;-87
2021/05/23 07:53:29;;;;;;;7.85;3.10;;;;;;;14.74;59.13;101213.50;5054049;28;20483;-90
2021/05/23 07:55:56;;;;;;;9.07;2.85;;;;;;;14.92;58.64;101224.53;5054360;28;20129;-88
2021/05/23 07:58:23;;;;;;;7.90;2.40;;;;;;;14.82;58.19;101222.16;5054272;28;20112;-92
2021/05/23 08:00:52;;;;;;;8.27;2.47;;;;;;;14.67;58.46;101241.31;5053930;28;20052;-90
2021/05/23 08:03:18;;;;;;;6.30;1.98;;;;;;;14.94;57.32;101225.34;5054264;28;20044;-79
2021/05/23 08:05:45;;;;;;;5.45;1.80;;;;;;;14.85;55.87;101231.84;5054172;28;20032;-83
2021/05/23 08:08:19;;;;;;;5.40;2.58;;;;;;;14.56;55.89;101237.13;5042027;28;20032;-86
2021/05/23 08:10:46;;;;;;;4.53;1.63;;;;;;;14.84;54.89;101233.66;5052550;28;20119;-79
2021/05/23 08:13:17;;;;;;;5.47;1.38;;;;;;;14.68;55.17;101222.59;5052933;28;20370;-86
2021/05/23 08:15:44;;;;;;;3.05;1.30;;;;;;;14.53;55.23;101236.38;5054042;28;20033;-92
2021/05/23 08:18:11;;;;;;;8.23;1.40;;;;;;;14.64;55.88;101239.56;5054051;28;20094;-92
2021/05/23 08:20:37;;;;;;;7.20;1.40;;;;;;;14.38;55.56;101249.22;5053608;28;20020;-84
2021/05/23 08:23:05;;;;;;;9.00;1.50;;;;;;;14.08;55.61;101251.84;5056234;28;20033;-92
2021/05/23 08:25:33;;;;;;;6.93;2.03;;;;;;;14.40;55.53;101262.50;5056952;28;20548;-83
2021/05/23 08:27:59;;;;;;;5.40;1.85;;;;;;;14.55;55.55;101267.41;5054112;28;20074;-85
2021/05/23 08:30:26;;;;;;;7.47;1.70;;;;;;;14.75;55.60;101263.25;5053733;28;20029;-87
2021/05/23 08:32:53;;;;;;;4.55;1.63;;;;;;;14.39;56.94;101282.06;5053449;28;20112;-83
2021/05/23 08:35:44;;;;;;;12.68;2.42;;;;;;;14.92;56.51;101269.88;5052931;28;20048;-85
2021/05/23 08:38:14;;;;;;;9.18;2.17;;;;;;;14.84;56.86;101278.09;5053301;28;20039;-93
2021/05/23 08:40:41;;;;;;;12.30;2.58;;;;;;;14.66;57.16;101285.75;5053213;28;20029;-86
2021/05/23 08:43:29;;;;;;;9.18;1.73;;;;;;;14.54;57.19;101297.63;5053216;28;20037;-93
2021/05/23 08:45:58;;;;;;;10.80;2.20;;;;;;;14.82;56.55;101298.63;5035220;28;20052;-92
2021/05/23 08:48:29;;;;;;;9.45;2.17;;;;;;;14.64;56.37;101300.03;5053148;28;20028;-91
2021/05/23 08:50:55;;;;;;;11.43;2.47;;;;;;;14.45;56.64;101319.22;5054533;28;20457;-91
2021/05/23 08:53:22;;;;;;;7.30;2.42;;;;;;;14.57;56.59;101302.88;5053290;28;20021;-91
2021/05/23 08:55:54;;;;;;;12.88;2.28;;;;;;;14.96;56.22;101306.22;5050984;28;20052;-92
2021/05/23 08:58:28;;;;;;;10.32;2.38;;;;;;;14.94;55.52;101316.06;5051606;28;20064;-93
2021/05/23 09:00:56;;;;;;;6.88;2.30;;;;;;;15.10;55.44;101306.63;5048611;28;20108;-93
2021/05/23 09:03:23;;;;;;;8.93;2.20;;;;;;;15.06;55.49;101310.34;5047784;28;20025;-91
2021/05/23 09:05:56;;;;;;;8.48;2.42;;;;;;;15.11;54.83;101335.09;5044897;28;20037;-91
2021/05/23 09:08:26;;;;;;;6.68;2.05;;;;;;;14.64;54.35;101324.91;5049737;28;20037;-91
2021/05/23 09:11:01;;;;;;;8.38;1.98;;;;;;;15.36;53.48;101318.28;5053417;28;20109;-89
2021/05/23 09:13:36;;;;;;;9.10;2.05;;;;;;;15.43;52.68;101325.19;5036782;28;20033;-93
2021/05/23 09:16:08;;;;;;;8.43;2.42;;;;;;;15.61;52.03;101341.53;5053774;28;20041;-89
2021/05/23 09:18:53;;;;;;;10.35;2.20;;;;;;;15.48;50.31;101327.72;5052700;28;20021;-92
2021/05/23 09:21:24;;;;;;;7.30;2.42;;;;;;;15.48;50.80;101338.41;5051574;28;20494;-84
2021/05/23 09:23:53;;;;;;;5.28;2.42;;;;;;;15.17;50.27;101328.69;5052789;28;20039;-87
2021/05/23 09:26:26;;;;;;;7.85;1.92;;;;;;;15.46;49.81;101333.06;5052905;28;20040;-92
2021/05/23 09:28:54;;;;;;;10.30;2.28;;;;;;;15.49;49.82;101335.66;5052605;28;20029;-88
2021/05/23 09:31:24;;;;;;;6.25;2.22;;;;;;;15.55;50.70;101336.38;5048324;28;20034;-90
2021/05/23 09:33:53;;;;;;;10.15;2.00;;;;;;;15.77;50.66;101345.41;5045589;28;20040;-91
2021/05/23 09:36:21;;;;;;;5.80;2.05;;;;;;;15.90;50.75;101337.03;5052840;28;20031;-92
2021/05/23 09:39:04;;;;;;;8.45;2.15;;;;;;;15.90;51.17;101343.25;5052010;28;20033;-87
2021/05/23 09:41:36;;;;;;;;;;;;;;;15.46;50.72;101343.75;5035324;28;20029;-92
2021/05/23 09:44:24;;;;;;;5.63;1.60;;;;;;;15.77;49.71;101340.06;5053074;28;19919;-89
2021/05/23 09:47:31;;;;;;;7.28;2.28;;;;;;;15.99;49.42;101356.28;5052609;28;20112;-88
2021/05/23 09:49:57;;;;;;;4.10;1.50;;;;;;;15.85;48.73;101353.22;5056466;28;20087;-92
2021/05/23 09:52:42;;;;;;;9.85;1.80;;;;;;;15.82;48.03;101354.19;5056729;28;20096;-91
2021/05/23 09:55:15;;;;;;;6.15;1.65;;;;;;;15.92;48.68;101359.22;5055378;28;20033;-93
2021/05/23 09:57:42;;;;;;;5.32;1.70;;;;;;;16.10;48.61;101360.38;5056454;28;20033;-90
2021/05/23 10:00:38;;;;;;;7.13;2.15;;;;;;;15.90;48.98;101387.78;5056212;28;20055;-81
2021/05/23 10:03:04;;;;;;;7.25;1.70;;;;;;;15.39;47.84;101366.28;5055865;28;20029;-84
2021/05/23 10:05:51;;;;;;;7.40;1.80;;;;;;;15.34;46.66;101373.56;5055297;28;20037;-90
2021/05/23 10:08:18;;;;;;;5.55;1.48;;;;;;;15.58;46.13;101360.34;5056616;28;20080;-90
2021/05/23 10:10:45;;;;;;;8.52;1.65;;;;;;;16.11;45.36;101357.69;5057566;28;20047;-92
2021/05/23 10:13:12;;;;;;;5.30;1.27;;;;;;;16.18;44.07;101372.56;5058471;28;20036;-90
2021/05/23 10:15:42;;;;;;;3.95;1.00;;;;;;;16.58;43.17;101370.25;5057186;28;20040;-87
2021/05/23 10:18:09;;;;;;;3.15;1.10;;;;;;;16.85;43.16;101379.97;5057647;28;20102;-91
2021/05/23 10:20:36;;;;;;;5.78;1.10;;;;;;;16.69;42.06;101380.56;5057123;28;20029;-92
2021/05/23 10:23:22;;;;;;;4.88;1.10;;;;;;;16.73;41.90;101384.84;5057010;28;20033;-90
2021/05/23 10:25:53;;;;;;;5.35;1.40;;;;;;;16.98;41.46;101383.97;5054397;28;20094;-90
2021/05/23 10:28:20;;;;;;;5.32;1.27;;;;;;;16.99;39.67;101396.44;5063953;28;20040;-90
2021/05/23 10:30:50;;;;;;;8.95;1.50;;;;;;;17.27;40.70;101381.97;5040855;28;20501;-92
2021/05/23 10:33:16;;;;;;;3.08;1.15;;;;;;;17.10;39.57;101399.56;5041964;28;20045;-83
2021/05/23 10:35:45;;;;;;;8.57;1.60;;;;;;;16.92;39.08;101411.88;5042360;28;20127;-91
2021/05/23 10:38:14;;;;;;;5.03;1.05;;;;;;;17.04;38.90;101404.28;5048086;28;20057;-95
2021/05/23 10:44:02;;;;;;;5.38;1.38;;;;;;;17.03;39.02;101419.47;5063747;28;20764;-89
2021/05/23 10:46:42;;;;;;;2.80;1.15;;;;;;;17.13;38.31;101406.59;5027916;28;20429;-91
2021/05/23 10:49:08;;;;;;;3.92;1.27;;;;;;;16.98;38.12;101421.44;5025590;28;20073;-88
2021/05/23 10:51:37;;;;;;;6.30;1.05;;;;;;;16.91;37.22;101419.88;5012285;28;20030;-89
2021/05/23 10:54:14;;;;;;;4.53;1.58;;;;;;;16.86;36.03;101421.88;5030484;28;20033;-84
2021/05/23 10:56:41;;;;;;;4.40;1.30;;;;;;;17.08;36.84;101414.81;5021018;28;20034;-85
2021/05/23 10:59:08;;;;;;;7.70;1.45;;;;;;;16.95;36.65;101410.88;5024641;28;20050;-90
2021/05/23 11:04:25;;;;;;;2.95;0.93;;;;;;;17.16;36.82;101417.22;5094292;27;20391;-81
2021/05/23 11:06:51;;;;;;;9.05;1.13;;;;;;;17.23;36.95;101410.66;5081663;28;20035;-89
2021/05/23 11:09:20;;;;;;;3.75;1.35;;;;;;;17.22;36.33;101429.47;5078581;28;20551;-86
2021/05/23 11:11:52;;;;;;;8.05;1.33;;;;;;;16.97;35.81;101422.38;5073157;28;20025;-88
2021/05/23 11:17:00;;;;;;;6.40;1.50;;;;;;;17.13;36.50;101431.59;4452359;27;17889950;-90
2021/05/23 11:19:31;;;;;;;3.85;0.85;;;;;;;17.20;36.55;101426.00;5046843;28;20040;-90
2021/05/23 11:21:59;;;;;;;5.65;1.33;;;;;;;16.93;36.64;101436.81;5066005;28;20029;-89
2021/05/23 11:24:30;;;;;;;3.83;1.23;;;;;;;16.53;36.22;101435.56;5048643;28;20112;-88
2021/05/23 11:26:57;;;;;;;6.60;1.60;;;;;;;16.45;37.32;101439.38;5047700;28;20044;-91
2021/05/23 11:29:26;;;;;;;7.13;1.20;;;;;;;16.64;37.27;101426.22;5045347;28;20115;-89
2021/05/23 11:31:53;;;;;;;3.95;1.40;;;;;;;16.80;37.16;101434.56;5046625;28;20037;-91
2021/05/23 11:34:21;;;;;;;3.85;1.20;;;;;;;16.85;37.63;101423.69;5064481;28;20036;-87
2021/05/23 11:36:48;;;;;;;5.05;1.27;;;;;;;17.29;37.14;101441.69;5059816;28;20051;-90
2021/05/23 11:39:17;;;;;;;3.35;1.20;;;;;;;17.76;37.72;101424.69;5069499;28;20040;-88
2021/05/23 11:41:48;;;;;;;4.50;1.20;;;;;;;17.51;36.31;101420.31;5066940;28;20040;-91
2021/05/23 11:44:16;;;;;;;2.90;1.15;;;;;;;17.54;36.34;101425.53;5064115;28;20031;-90
2021/05/23 11:46:50;;;;;;;6.82;0.98;;;;;;;17.77;35.83;101416.56;5067576;28;20029;-90
2021/05/23 11:49:19;;;;;;;5.88;2.25;;;;;;;17.63;35.63;101424.28;5064038;28;20464;-90
2021/05/23 11:51:47;;;;;;;5.05;1.27;;;;;;;17.60;36.41;101436.00;5065272;28;20029;-81